createdAt,value
2019-02-16T00:02:04.328Z,6.08
2019-02-16T00:04:32.563Z,5.60
2019-02-16T00:07:00.819Z,6.47
2019-02-16T00:09:29.083Z,6.67
2019-02-16T00:11:57.315Z,5.70
2019-02-16T00:14:25.577Z,6.20
2019-02-16T00:16:53.817Z,7.47
2019-02-16T00:19:22.075Z,7.12
2019-02-16T00:21:50.323Z,5.20
2019-02-16T00:24:18.560Z,5.12
2019-02-16T00:26:46.800Z,5.28
2019-02-16T00:29:15.036Z,4.95
2019-02-16T00:31:43.269Z,5.70
2019-02-16T00:34:11.547Z,6.53
2019-02-16T00:36:39.856Z,5.70
2019-02-16T00:39:08.100Z,7.00
2019-02-16T00:41:36.355Z,6.40
2019-02-16T00:44:05.597Z,6.57
2019-02-16T00:46:33.904Z,4.85
2019-02-16T00:49:02.144Z,5.50
2019-02-16T00:51:30.386Z,8.38
2019-02-16T00:53:58.993Z,8.30
2019-02-16T00:56:27.270Z,8.00
2019-02-16T00:58:55.580Z,6.90
2019-02-16T01:01:23.828Z,9.00
2019-02-16T01:03:52.176Z,9.03
2019-02-16T01:06:20.435Z,7.40
2019-02-16T01:08:48.684Z,10.88
2019-02-16T01:11:16.932Z,6.75
2019-02-16T01:13:45.204Z,9.28
2019-02-16T01:16:13.463Z,8.83
2019-02-16T01:18:41.749Z,9.20
2019-02-16T01:21:09.976Z,9.67
2019-02-16T01:23:38.227Z,7.80
2019-02-16T01:26:06.459Z,8.48
2019-02-16T01:28:34.702Z,8.53
2019-02-16T01:31:02.966Z,9.80
2019-02-16T01:33:31.300Z,7.85
2019-02-16T01:35:59.647Z,8.90
2019-02-16T01:38:29.028Z,7.60
2019-02-16T01:40:57.264Z,8.08
2019-02-16T01:43:25.500Z,7.53
2019-02-16T01:45:53.784Z,8.40
2019-02-16T01:48:22.031Z,7.85
2019-02-16T01:50:50.400Z,7.22
2019-02-16T01:53:18.640Z,6.97
2019-02-16T01:55:47.555Z,7.05
2019-02-16T01:58:15.919Z,7.22
2019-02-16T02:00:44.159Z,6.28
2019-02-16T02:03:12.407Z,8.50
2019-02-16T02:05:40.659Z,7.62
2019-02-16T02:08:08.906Z,11.93
2019-02-16T02:10:37.143Z,7.63
2019-02-16T02:13:05.368Z,8.58
2019-02-16T02:15:33.615Z,7.03
2019-02-16T02:18:01.884Z,8.10
2019-02-16T02:20:30.136Z,7.78
2019-02-16T02:22:58.384Z,8.83
2019-02-16T02:25:26.649Z,7.58
2019-02-16T02:27:54.908Z,8.60
2019-02-16T02:30:23.181Z,9.73
2019-02-16T02:32:51.441Z,7.50
2019-02-16T02:35:19.795Z,6.20
2019-02-16T02:37:48.037Z,7.40
2019-02-16T02:40:16.272Z,9.20
2019-02-16T02:42:44.541Z,8.88
2019-02-16T02:45:12.792Z,7.65
2019-02-16T02:47:41.049Z,7.10
2019-02-16T02:50:09.390Z,7.90
2019-02-16T02:52:38.623Z,7.10
2019-02-16T02:55:06.971Z,6.80
2019-02-16T02:57:35.314Z,8.58
2019-02-16T03:00:04.280Z,9.93
2019-02-16T03:02:32.548Z,7.40
2019-02-16T03:05:00.808Z,12.37
2019-02-16T03:07:29.065Z,7.53
2019-02-16T03:09:57.338Z,6.22
2019-02-16T03:12:25.563Z,7.37
2019-02-16T03:14:53.785Z,6.87
2019-02-16T03:17:22.093Z,7.13
2019-02-16T03:19:50.323Z,11.73
2019-02-16T03:22:18.555Z,7.50
2019-02-16T03:24:46.804Z,13.03
2019-02-16T03:27:25.588Z,6.83
2019-02-16T03:30:11.713Z,7.87
2019-02-16T03:32:44.462Z,9.08
2019-02-16T03:35:19.374Z,8.53
2019-02-16T03:38:04.847Z,11.08
2019-02-16T03:40:33.087Z,7.90
2019-02-16T03:43:01.351Z,7.28
2019-02-16T03:45:29.640Z,8.50
2019-02-16T03:47:57.889Z,8.58
2019-02-16T03:50:26.128Z,7.80
2019-02-16T03:52:54.392Z,7.00
2019-02-16T03:55:23.803Z,9.83
2019-02-16T03:57:52.044Z,8.73
2019-02-16T04:00:20.304Z,8.08
2019-02-16T04:02:48.556Z,8.00
2019-02-16T04:05:16.779Z,11.40
2019-02-16T04:07:45.036Z,7.45
2019-02-16T04:10:13.275Z,9.85
2019-02-16T04:12:41.539Z,6.87
2019-02-16T04:15:09.848Z,7.67
2019-02-16T04:17:38.102Z,8.25
2019-02-16T04:20:06.581Z,8.00
2019-02-16T04:22:34.898Z,7.15
2019-02-16T04:25:03.223Z,7.37
2019-02-16T04:27:31.525Z,10.10
2019-02-16T04:29:59.772Z,8.93
2019-02-16T04:32:28.036Z,10.20
2019-02-16T04:34:56.267Z,7.35
2019-02-16T04:37:24.526Z,9.58
2019-02-16T04:39:52.783Z,6.10
2019-02-16T04:42:21.139Z,7.62
2019-02-16T04:44:49.429Z,10.10
2019-02-16T04:47:17.679Z,8.30
2019-02-16T04:49:45.907Z,7.17
2019-02-16T04:52:14.174Z,9.48
2019-02-16T04:54:42.403Z,8.20
2019-02-16T04:57:10.689Z,9.38
2019-02-16T04:59:38.928Z,7.67
2019-02-16T05:02:07.182Z,8.48
2019-02-16T05:04:35.451Z,5.70
2019-02-16T05:07:03.775Z,8.05
2019-02-16T05:09:32.028Z,8.88
2019-02-16T05:12:00.272Z,7.28
2019-02-16T05:14:28.523Z,6.87
2019-02-16T05:16:56.821Z,8.57
2019-02-16T05:19:25.059Z,7.58
2019-02-16T05:21:53.304Z,10.85
2019-02-16T05:24:21.552Z,5.40
2019-02-16T05:26:49.819Z,6.42
2019-02-16T05:29:18.064Z,7.28
2019-02-16T05:31:46.306Z,8.03
2019-02-16T05:34:14.563Z,7.50
2019-02-16T05:36:42.818Z,11.43
2019-02-16T05:39:11.100Z,6.83
2019-02-16T05:41:39.356Z,11.40
2019-02-16T05:44:07.621Z,10.10
2019-02-16T05:46:35.897Z,7.83
2019-02-16T05:49:04.151Z,8.18
2019-02-16T05:51:32.409Z,11.38
2019-02-16T05:54:00.688Z,9.30
2019-02-16T05:56:28.916Z,7.62
2019-02-16T05:58:57.223Z,8.98
2019-02-16T06:01:25.468Z,8.73
2019-02-16T06:03:53.743Z,10.50
2019-02-16T06:06:22.021Z,8.78
2019-02-16T06:08:50.286Z,8.48
2019-02-16T06:11:18.540Z,7.47
2019-02-16T06:13:46.812Z,8.68
2019-02-16T06:16:15.072Z,9.28
2019-02-16T06:18:43.332Z,7.15
2019-02-16T06:21:11.592Z,8.83
2019-02-16T06:23:39.848Z,8.65
2019-02-16T06:26:08.095Z,7.83
2019-02-16T06:28:36.336Z,10.60
2019-02-16T06:31:04.643Z,8.30
2019-02-16T06:33:32.923Z,8.88
2019-02-16T06:36:09.108Z,10.55
2019-02-16T06:38:37.386Z,7.65
2019-02-16T06:41:05.619Z,9.48
2019-02-16T06:43:33.988Z,8.28
2019-02-16T06:46:02.223Z,7.20
2019-02-16T06:48:30.475Z,10.30
2019-02-16T06:50:58.725Z,8.98
2019-02-16T06:53:26.967Z,11.25
2019-02-16T06:56:11.128Z,8.90
2019-02-16T06:58:39.384Z,8.40
2019-02-16T07:01:07.626Z,9.57
2019-02-16T07:03:36.853Z,10.85
2019-02-16T07:06:05.092Z,7.40
2019-02-16T07:08:33.341Z,9.70
2019-02-16T07:11:01.589Z,8.85
2019-02-16T07:13:29.860Z,11.55
2019-02-16T07:16:16.457Z,11.15
2019-02-16T07:18:50.460Z,7.90
2019-02-16T07:21:18.704Z,9.70
2019-02-16T07:23:46.980Z,9.30
2019-02-16T07:26:15.197Z,9.48
2019-02-16T07:28:43.566Z,9.60
2019-02-16T07:31:11.804Z,9.78
2019-02-16T07:33:40.068Z,9.90
2019-02-16T07:36:08.352Z,7.53
2019-02-16T07:38:36.592Z,9.85
2019-02-16T07:41:04.856Z,10.43
2019-02-16T07:43:55.533Z,9.28
2019-02-16T07:46:30.800Z,10.30
2019-02-16T07:49:13.208Z,9.58
2019-02-16T07:51:53.799Z,8.20
2019-02-16T07:54:29.245Z,8.48
2019-02-16T07:57:02.304Z,9.13
2019-02-16T07:59:44.594Z,10.00
2019-02-16T08:02:37.852Z,8.45
2019-02-16T08:05:18.942Z,8.40
2019-02-16T08:07:59.276Z,7.67
2019-02-16T08:10:50.554Z,8.15
2019-02-16T08:13:25.833Z,8.38
2019-02-16T08:16:00.771Z,10.32
2019-02-16T08:19:06.763Z,10.03
2019-02-16T08:22:00.264Z,10.85
2019-02-16T08:24:46.603Z,12.15
2019-02-16T08:27:25.558Z,10.57
2019-02-16T08:29:59.639Z,12.17
2019-02-16T08:32:44.315Z,17.27
2019-02-16T08:35:20.488Z,14.85
2019-02-16T08:38:00.155Z,16.33
2019-02-16T08:40:53.684Z,14.00
2019-02-16T08:43:29.417Z,13.78
2019-02-16T08:46:07.868Z,10.00
2019-02-16T08:48:45.207Z,13.28
2019-02-16T08:51:22.515Z,15.15
2019-02-16T08:54:06.442Z,11.67
2019-02-16T08:56:43.129Z,13.60
2019-02-16T08:59:18.867Z,13.83
2019-02-16T09:01:53.407Z,15.15
2019-02-16T09:04:44.712Z,16.63
2019-02-16T09:07:28.047Z,14.23
2019-02-16T09:10:12.699Z,14.53
2019-02-16T09:12:57.575Z,14.10
2019-02-16T09:15:51.235Z,13.27
2019-02-16T09:18:53.847Z,14.63
2019-02-16T09:21:47.806Z,15.05
2019-02-16T09:24:30.915Z,12.43
2019-02-16T09:27:29.202Z,13.58
2019-02-16T09:30:06.281Z,13.50
2019-02-16T09:32:52.512Z,16.93
2019-02-16T09:35:33.190Z,16.93
2019-02-16T09:38:29.662Z,15.97
2019-02-16T09:41:16.375Z,14.30
2019-02-16T09:44:04.020Z,14.60
2019-02-16T09:46:41.637Z,16.93
2019-02-16T09:49:18.019Z,14.47
2019-02-16T09:52:00.095Z,11.13
2019-02-16T09:54:41.983Z,12.58
2019-02-16T09:57:24.711Z,13.30
2019-02-16T09:59:58.702Z,11.73
2019-02-16T10:03:01.292Z,12.90
2019-02-16T10:05:48.743Z,10.45
2019-02-16T10:08:27.338Z,16.35
2019-02-16T10:11:30.127Z,11.88
2019-02-16T10:14:04.964Z,9.80
2019-02-16T10:16:40.791Z,13.53
2019-02-16T10:19:19.639Z,14.00
2019-02-16T10:22:11.046Z,10.60
2019-02-16T10:24:58.777Z,17.05
2019-02-16T10:27:45.595Z,15.10
2019-02-16T10:30:21.951Z,14.27
2019-02-16T10:33:01.393Z,12.90
2019-02-16T10:35:53.425Z,12.63
2019-02-16T10:38:46.912Z,10.40
2019-02-16T10:41:34.315Z,13.87
2019-02-16T10:44:13.451Z,11.73
2019-02-16T10:47:03.758Z,9.53
2019-02-16T10:49:38.645Z,15.20
2019-02-16T10:52:14.839Z,10.93
2019-02-16T10:54:51.957Z,12.93
2019-02-16T10:57:38.415Z,13.30
2019-02-16T11:00:14.556Z,14.03
2019-02-16T11:03:05.251Z,11.83
2019-02-16T11:05:55.792Z,16.07
2019-02-16T11:08:31.828Z,12.63
2019-02-16T11:11:18.323Z,15.67
2019-02-16T11:14:10.059Z,17.07
2019-02-16T11:16:56.424Z,16.03
2019-02-16T11:19:38.062Z,15.43
2019-02-16T11:22:31.543Z,21.00
2019-02-16T11:25:28.995Z,18.42
2019-02-16T11:28:15.395Z,16.60
2019-02-16T11:31:02.799Z,15.50
2019-02-16T11:33:43.096Z,16.20
2019-02-16T11:36:17.068Z,17.15
2019-02-16T11:39:10.603Z,17.87
2019-02-16T11:41:54.488Z,15.20
2019-02-16T11:44:50.924Z,16.07
2019-02-16T11:47:27.038Z,16.60
2019-02-16T11:50:29.764Z,18.47
2019-02-16T11:53:23.611Z,15.27
2019-02-16T11:56:17.152Z,17.70
2019-02-16T11:58:56.070Z,16.73
2019-02-16T12:01:43.063Z,18.65
2019-02-16T12:04:32.338Z,17.27
2019-02-16T12:07:06.947Z,16.23
2019-02-16T12:09:57.966Z,19.33
2019-02-16T12:12:44.343Z,19.70
2019-02-16T12:15:28.320Z,18.50
2019-02-16T12:18:25.042Z,17.67
2019-02-16T12:21:17.579Z,21.37
2019-02-16T12:23:59.201Z,19.65
2019-02-16T12:26:40.873Z,19.62
2019-02-16T12:29:26.998Z,19.52
2019-02-16T12:32:14.406Z,21.10
2019-02-16T12:35:11.384Z,20.10
2019-02-16T12:37:45.772Z,20.57
2019-02-16T12:40:21.008Z,18.70
2019-02-16T12:43:04.964Z,19.80
2019-02-16T12:45:50.793Z,20.87
2019-02-16T12:48:33.150Z,18.07
2019-02-16T12:51:29.655Z,23.00
2019-02-16T12:54:06.551Z,21.90
2019-02-16T12:56:49.179Z,24.60
2019-02-16T12:59:25.639Z,25.70
2019-02-16T13:02:07.595Z,22.20
2019-02-16T13:04:55.122Z,22.50
2019-02-16T13:07:37.388Z,24.70
2019-02-16T13:10:30.830Z,22.97
2019-02-16T13:13:09.479Z,19.73
2019-02-16T13:16:06.038Z,24.03
2019-02-16T13:18:42.266Z,27.67
2019-02-16T13:21:27.428Z,25.20
2019-02-16T13:24:11.894Z,23.57
2019-02-16T13:27:02.139Z,26.33
2019-02-16T13:29:49.647Z,25.35
2019-02-16T13:32:28.539Z,23.10
2019-02-16T13:35:16.090Z,23.57
2019-02-16T13:37:54.163Z,27.60
2019-02-16T13:40:30.068Z,26.77
2019-02-16T13:43:24.001Z,24.15
2019-02-16T13:46:14.271Z,29.00
2019-02-16T13:48:47.500Z,25.02
2019-02-16T13:51:33.994Z,25.37
2019-02-16T13:54:21.483Z,25.10
2019-02-16T13:57:24.378Z,24.92
2019-02-16T14:00:02.929Z,29.70
2019-02-16T14:02:51.783Z,24.30
2019-02-16T14:05:35.963Z,21.23
2019-02-16T14:08:22.427Z,26.10
2019-02-16T14:10:56.467Z,24.43
2019-02-16T14:13:56.131Z,24.40
2019-02-16T14:16:42.067Z,20.97
2019-02-16T14:19:10.327Z,23.77
2019-02-16T14:21:38.603Z,21.23
2019-02-16T14:24:06.802Z,20.53
2019-02-16T14:26:35.007Z,20.97
2019-02-16T14:29:03.199Z,21.63
2019-02-16T14:31:31.415Z,19.42
2019-02-16T14:33:59.701Z,19.30
2019-02-16T14:36:27.963Z,19.10
2019-02-16T14:39:00.725Z,25.87
2019-02-16T14:41:30.215Z,22.00
2019-02-16T14:43:58.931Z,20.17
2019-02-16T14:46:27.206Z,21.90
2019-02-16T14:48:55.473Z,25.20
2019-02-16T14:51:23.683Z,27.37
2019-02-16T14:53:52.877Z,18.00
2019-02-16T14:56:22.159Z,23.92
2019-02-16T14:58:50.351Z,21.52
2019-02-16T15:01:18.635Z,21.50
2019-02-16T15:03:46.845Z,22.17
2019-02-16T15:06:15.138Z,20.43
2019-02-16T15:08:43.447Z,20.17
2019-02-16T15:11:11.731Z,22.60
2019-02-16T15:13:39.992Z,23.40
2019-02-16T15:16:08.187Z,19.30
2019-02-16T15:18:36.400Z,21.52
2019-02-16T15:21:04.613Z,19.13
2019-02-16T15:23:33.387Z,22.63
2019-02-16T15:26:01.694Z,22.33
2019-02-16T15:28:29.963Z,20.70
2019-02-16T15:30:58.207Z,24.07
2019-02-16T15:33:26.406Z,28.40
2019-02-16T15:35:54.651Z,47.30
2019-02-16T15:38:22.995Z,22.37
2019-02-16T15:40:52.172Z,23.47
2019-02-16T15:43:20.374Z,23.37
2019-02-16T15:45:49.553Z,20.60
2019-02-16T15:48:17.774Z,20.82
2019-02-16T15:50:45.987Z,24.02
2019-02-16T15:53:14.203Z,22.70
2019-02-16T15:55:43.421Z,19.77
2019-02-16T15:58:11.745Z,22.60
2019-02-16T16:00:40.036Z,20.43
2019-02-16T16:03:08.235Z,26.47
2019-02-16T16:05:36.538Z,51.73
2019-02-16T16:08:19.939Z,42.60
2019-02-16T16:10:54.088Z,55.70
2019-02-16T16:13:40.111Z,39.15
2019-02-16T16:16:15.292Z,37.87
2019-02-16T16:18:49.886Z,30.12
2019-02-16T16:21:43.191Z,25.85
2019-02-16T16:24:19.531Z,34.27
2019-02-16T16:27:19.090Z,34.23
2019-02-16T16:30:11.973Z,32.20
2019-02-16T16:32:47.183Z,29.27
2019-02-16T16:35:22.159Z,23.47
2019-02-16T16:38:09.588Z,27.90
2019-02-16T16:40:48.872Z,33.30
2019-02-16T16:43:27.528Z,30.37
2019-02-16T16:46:06.004Z,33.03
2019-02-16T16:48:52.371Z,32.50
2019-02-16T16:51:36.257Z,28.70
2019-02-16T16:54:23.484Z,26.37
2019-02-16T16:57:20.008Z,23.50
2019-02-16T16:59:55.660Z,29.45
2019-02-16T17:02:42.251Z,26.25
2019-02-16T17:05:26.831Z,23.07
2019-02-16T17:08:06.218Z,23.20
2019-02-16T17:11:02.731Z,27.57
2019-02-16T17:13:36.719Z,24.47
2019-02-16T17:16:33.495Z,24.57
2019-02-16T17:19:23.919Z,27.03
2019-02-16T17:22:13.023Z,25.95
2019-02-16T17:25:09.631Z,29.52
2019-02-16T17:27:45.206Z,24.75
2019-02-16T17:30:25.051Z,28.90
2019-02-16T17:33:01.215Z,32.83
2019-02-16T17:35:46.408Z,38.10
2019-02-16T17:38:32.471Z,42.47
2019-02-16T17:41:18.520Z,43.87
2019-02-16T17:44:05.075Z,46.20
2019-02-16T17:46:42.774Z,47.25
2019-02-16T17:49:30.199Z,42.47
2019-02-16T17:52:18.645Z,42.35
2019-02-16T17:55:06.452Z,41.43
2019-02-16T17:57:39.471Z,34.73
2019-02-16T18:00:30.933Z,35.28
2019-02-16T18:03:09.612Z,39.65
2019-02-16T18:05:49.567Z,30.40
2019-02-16T18:08:45.839Z,33.73
2019-02-16T18:11:40.291Z,34.77
2019-02-16T18:14:33.575Z,33.90
2019-02-16T18:17:19.887Z,30.17
2019-02-16T18:19:53.482Z,34.20
2019-02-16T18:22:27.568Z,34.45
2019-02-16T18:25:09.561Z,33.73
2019-02-16T18:27:45.787Z,26.82
2019-02-16T18:30:28.962Z,36.80
2019-02-16T18:33:15.309Z,31.10
2019-02-16T18:36:21.355Z,27.48
2019-02-16T18:39:08.793Z,27.50
2019-02-16T18:41:58.991Z,29.93
2019-02-16T18:44:40.935Z,25.50
2019-02-16T18:47:46.948Z,30.55
2019-02-16T18:50:31.637Z,25.77
2019-02-16T18:53:21.548Z,28.30
2019-02-16T18:56:06.618Z,32.35
2019-02-16T18:58:42.955Z,28.10
2019-02-16T19:01:31.021Z,33.50
2019-02-16T19:04:18.471Z,34.70
2019-02-16T19:06:58.787Z,27.15
2019-02-16T19:09:38.834Z,32.83
2019-02-16T19:12:29.405Z,34.95
2019-02-16T19:15:15.806Z,33.75
2019-02-16T19:18:12.516Z,36.90
2019-02-16T19:21:02.491Z,29.67
2019-02-16T19:23:39.755Z,31.25
2019-02-16T19:26:30.471Z,37.63
2019-02-16T19:29:03.984Z,30.80
2019-02-16T19:31:54.455Z,30.17
2019-02-16T19:34:34.402Z,29.60
2019-02-16T19:37:20.934Z,28.67
2019-02-16T19:40:01.790Z,27.20
2019-02-16T19:42:39.290Z,29.40
2019-02-16T19:45:15.537Z,29.07
2019-02-16T19:48:02.232Z,31.57
2019-02-16T19:50:55.687Z,29.53
2019-02-16T19:53:33.319Z,34.40
2019-02-16T19:56:23.102Z,28.23
2019-02-16T19:59:05.603Z,28.98
2019-02-16T20:01:51.830Z,31.55
2019-02-16T20:04:35.330Z,29.43
2019-02-16T20:07:21.797Z,32.33
2019-02-16T20:10:07.844Z,31.77
2019-02-16T20:12:54.320Z,27.65
2019-02-16T20:15:40.464Z,29.40
2019-02-16T20:18:20.995Z,26.73
2019-02-16T20:21:09.528Z,30.52
2019-02-16T20:23:56.938Z,30.57
2019-02-16T20:26:47.671Z,32.83
2019-02-16T20:29:21.480Z,33.10
2019-02-16T20:32:07.791Z,32.73
2019-02-16T20:34:46.900Z,30.90
2019-02-16T20:37:20.451Z,32.25
2019-02-16T20:39:56.185Z,29.60
2019-02-16T20:42:46.942Z,33.70
2019-02-16T20:45:30.178Z,36.47
2019-02-16T20:48:02.714Z,30.87
2019-02-16T20:50:39.130Z,35.33
2019-02-16T20:53:32.449Z,33.25
2019-02-16T20:56:25.747Z,35.38
2019-02-16T20:59:09.914Z,37.87
2019-02-16T21:01:48.231Z,33.88
2019-02-16T21:04:24.590Z,35.83
2019-02-16T21:07:12.069Z,41.33
2019-02-16T21:10:11.651Z,37.27
2019-02-16T21:12:49.057Z,36.97
2019-02-16T21:15:51.687Z,37.10
2019-02-16T21:18:39.647Z,38.63
2019-02-16T21:21:25.680Z,36.90
2019-02-16T21:24:05.903Z,41.50
2019-02-16T21:26:49.834Z,46.27
2019-02-16T21:29:36.346Z,35.73
2019-02-16T21:32:32.876Z,36.08
2019-02-16T21:35:14.551Z,39.43
2019-02-16T21:38:04.871Z,36.13
2019-02-16T21:40:51.338Z,40.20
2019-02-16T21:43:36.628Z,35.40
2019-02-16T21:46:28.351Z,31.68
2019-02-16T21:49:11.000Z,33.03
2019-02-16T21:51:57.499Z,36.33
2019-02-16T21:54:39.770Z,31.70
2019-02-16T21:57:42.265Z,38.20
2019-02-16T22:00:38.619Z,38.20
2019-02-16T22:03:23.872Z,41.00
2019-02-16T22:06:10.055Z,39.50
2019-02-16T22:08:45.248Z,32.45
2019-02-16T22:11:39.262Z,32.33
2019-02-16T22:14:07.571Z,31.77
2019-02-16T22:16:37.879Z,32.57
2019-02-16T22:19:06.102Z,35.20
2019-02-16T22:21:34.308Z,28.60
2019-02-16T22:24:02.551Z,29.87
2019-02-16T22:26:30.852Z,31.80
2019-02-16T22:28:59.158Z,29.10
2019-02-16T22:31:27.874Z,30.10
2019-02-16T22:33:56.090Z,30.40
2019-02-16T22:36:24.401Z,34.60
2019-02-16T22:38:52.619Z,31.67
2019-02-16T22:41:20.831Z,30.70
2019-02-16T22:43:49.171Z,33.33
2019-02-16T22:46:17.395Z,30.30
2019-02-16T22:48:46.056Z,32.95
2019-02-16T22:51:14.286Z,36.97
2019-02-16T22:53:42.553Z,32.40
2019-02-16T22:56:10.790Z,29.63
2019-02-16T22:58:39.074Z,36.33
2019-02-16T23:01:07.312Z,28.03
2019-02-16T23:03:35.515Z,34.23
2019-02-16T23:06:03.959Z,34.73
2019-02-16T23:08:32.190Z,29.94
2019-02-16T23:11:01.563Z,31.93
2019-02-16T23:13:29.879Z,26.63
2019-02-16T23:15:58.075Z,30.70
2019-02-16T23:18:26.290Z,26.68
2019-02-16T23:20:55.519Z,30.25
2019-02-16T23:23:23.726Z,26.77
2019-02-16T23:25:52.044Z,32.13
2019-02-16T23:28:20.246Z,29.18
2019-02-16T23:30:48.468Z,29.82
2019-02-16T23:33:16.679Z,30.67
2019-02-16T23:35:45.987Z,29.77
2019-02-16T23:38:14.283Z,31.48
2019-02-16T23:40:42.609Z,26.40
2019-02-16T23:43:10.902Z,28.40
2019-02-16T23:45:39.115Z,27.17
2019-02-16T23:48:07.312Z,27.60
2019-02-16T23:50:35.546Z,29.32
2019-02-16T23:53:03.755Z,27.67
2019-02-16T23:55:31.959Z,24.63
2019-02-16T23:58:00.175Z,27.70
